Saint Louis, Missouri
Traffic Map
Current Weather Conditions
Saint Louis, Missouri
Clear
Clear
72°
Feels Like: 72°
Wind Chill: 72° Ceiling: Unl
Heat Index: 72° Visibility: 10mi
Dew Point: 64° Wind: 5mph
Humidity: 76% Direction: 230° (SW)
Pressure: 29.9in Gusts: 0mph
Raw Report DataKCPS 180653Z AUTO 23004KT 10SM CLR 22/18 A2990 RMK AO2 SLP120 T02220178
Traffic Incident Summary
Active as of:
Severity:
Category:
InformationThere was an issue retrieving the traffic information for this location. Please try a different location or try again shortly.
Advertisements